Yuma Proving Ground, Arizona
Current Conditions -  °F | °C
As of 4:57 AM on Saturday 25 Oct 2014 (Local Time) from KNYL Reporting Station
Scattered Clouds Scattered Clouds  
Wind Chill: 75°   Ceiling: Unl
Heat Index: 75°   Visibility: 10mi
Dew Point: 48°   Wind: 5mph
Humidity: 38%   Direction: 50°NE
Pressure: 29.91"   Gusts: NA
Location:  32.7338°N, 114.51°W
Report Text: KNYL 251057Z 05004KT 10SM SCT120 24/09 A2991 RMK AO2 SLP125 T02390089
Loading
Personal Weather Stations






























Interactive Weather Map
Tropical Storm Tracking
New forecast layout! Learn more

10-Day Weather Forecast

Advertisements
Track Severe Weather on mobile